Terminal Aerodrome Forecast
Issued by NWS Caribou, ME

Home | Current Version | Previous Version | Text Only | Print | Product List | Glossary On
Versions: 1 2 3 4 5 6 7 8 9 10 11 12 13 14 15
492
FTUS41 KCAR 231137
TAFCAR
TAF
KCAR 231137Z 2312/2412 VRB03KT 4SM BR SCT005 BKN250
     FM231400 18005KT 6SM -SNPL OVC025
     FM231600 18006KT P6SM OVC015
     FM232000 20008KT 3SM -SHRA OVC015 WS020/22040KT
     FM240200 26008KT 2SM BR BKN025
     FM240500 28007KT 2SM BR SCT060=

USA.gov is the U.S. government's official web portal to all federal, state and local government web resources and services.